createdAt,value
2023-01-29T00:00:09.224Z,77.4208984375
2023-01-29T00:01:08.939Z,77.7607421875
2023-01-29T00:02:08.900Z,78
2023-01-29T00:03:08.968Z,78.232421875
2023-01-29T00:04:09.215Z,77.9345703125
2023-01-29T00:05:25.919Z,77.9755859375
2023-01-29T00:06:08.860Z,77.9580078125
2023-01-29T00:07:08.871Z,77.83203125
2023-01-29T00:08:08.964Z,77.673828125
2023-01-29T00:09:09.186Z,77.7177734375
2023-01-29T00:10:11.307Z,77.68359375
2023-01-29T00:11:08.872Z,77.4345703125
2023-01-29T00:12:08.888Z,77.4482421875
2023-01-29T00:13:08.910Z,77.263671875
2023-01-29T00:14:09.216Z,77.3720703125
2023-01-29T00:15:09.212Z,77.509765625
2023-01-29T00:16:08.931Z,77.505859375
2023-01-29T00:17:09.036Z,77.70703125
2023-01-29T00:18:08.982Z,77.8896484375
2023-01-29T00:19:09.228Z,78.0048828125
2023-01-29T00:20:08.905Z,78.21484375
2023-01-29T00:21:11.217Z,78.3759765625
2023-01-29T00:22:09.009Z,77.98046875
2023-01-29T00:23:09.006Z,77.91796875
2023-01-29T00:24:09.271Z,77.7861328125
2023-01-29T00:25:08.911Z,77.4599609375
2023-01-29T00:26:08.903Z,77.2451171875
2023-01-29T00:27:08.910Z,77.1298828125
2023-01-29T00:28:08.933Z,77.2138671875
2023-01-29T00:29:09.225Z,77.2392578125
2023-01-29T00:30:09.229Z,77.1435546875
2023-01-29T00:31:09.100Z,77.109375
2023-01-29T00:32:11.373Z,77.330078125
2023-01-29T00:33:09.010Z,77.638671875
2023-01-29T00:34:09.208Z,77.783203125
2023-01-29T00:35:08.874Z,77.9931640625
2023-01-29T00:36:08.922Z,78.275390625
2023-01-29T00:37:09.058Z,78.1865234375
2023-01-29T00:38:08.869Z,78.23828125
2023-01-29T00:39:08.991Z,78.4208984375
2023-01-29T00:40:08.900Z,78.201171875
2023-01-29T00:41:08.865Z,77.6728515625
2023-01-29T00:42:08.892Z,77.720703125
2023-01-29T00:43:11.252Z,77.9541015625
2023-01-29T00:44:08.891Z,78.0341796875
2023-01-29T00:45:09.210Z,77.4443359375
2023-01-29T00:46:08.878Z,77.419921875
2023-01-29T00:47:08.975Z,77.89453125
2023-01-29T00:48:08.888Z,77.7890625
2023-01-29T00:49:08.865Z,77.7060546875
2023-01-29T00:50:09.965Z,77.34375
2023-01-29T00:51:08.862Z,77.3818359375
2023-01-29T00:52:08.994Z,77.703125
2023-01-29T00:53:08.928Z,77.8193359375
2023-01-29T00:54:11.281Z,77.84765625
2023-01-29T00:55:09.227Z,77.9462890625
2023-01-29T00:56:08.859Z,78.087890625
2023-01-29T00:57:08.876Z,78.5390625
2023-01-29T00:58:08.991Z,78.2529296875
2023-01-29T00:59:08.977Z,78.5595703125
2023-01-29T01:00:08.878Z,78.3447265625
2023-01-29T01:01:09.344Z,78.4013671875
2023-01-29T01:02:08.971Z,78.3388671875
2023-01-29T01:03:08.929Z,78.3623046875
2023-01-29T01:04:08.955Z,78.125
2023-01-29T01:05:11.370Z,77.779296875
2023-01-29T01:06:09.216Z,77.56640625
2023-01-29T01:07:08.943Z,77.3828125
2023-01-29T01:08:08.879Z,77.5908203125
2023-01-29T01:09:08.996Z,77.380859375
2023-01-29T01:10:08.949Z,77.388671875
2023-01-29T01:11:09.218Z,77.771484375
2023-01-29T01:12:08.974Z,78.2021484375
2023-01-29T01:13:08.945Z,78.267578125
2023-01-29T01:14:08.982Z,78.0380859375
2023-01-29T01:15:09.215Z,77.7392578125
2023-01-29T01:16:13.796Z,78.1708984375
2023-01-29T01:17:08.945Z,78.16015625
2023-01-29T01:18:08.860Z,78.025390625
2023-01-29T01:19:09.003Z,78.072265625
2023-01-29T01:20:09.966Z,77.671875
2023-01-29T01:21:09.222Z,77.7548828125
2023-01-29T01:22:08.971Z,77.560546875
2023-01-29T01:23:08.997Z,77.5400390625
2023-01-29T01:24:08.909Z,77.2939453125
2023-01-29T01:25:09.015Z,77.3857421875
2023-01-29T01:26:09.218Z,77.2861328125
2023-01-29T01:27:11.253Z,76.9228515625
2023-01-29T01:28:08.888Z,76.90234375
2023-01-29T01:29:08.974Z,76.744140625
2023-01-29T01:30:09.221Z,77.048828125
2023-01-29T01:31:09.313Z,76.734375
2023-01-29T01:32:08.887Z,76.5283203125
2023-01-29T01:33:08.980Z,76.546875
2023-01-29T01:34:08.944Z,76.9052734375
2023-01-29T01:35:09.007Z,76.896484375
2023-01-29T01:36:09.223Z,76.939453125
2023-01-29T01:37:08.939Z,77.244140625
2023-01-29T01:38:11.333Z,77.5205078125
2023-01-29T01:39:08.939Z,77.31640625
2023-01-29T01:40:08.928Z,77.349609375
2023-01-29T01:41:09.216Z,77.4619140625
2023-01-29T01:42:08.920Z,77.46484375
2023-01-29T01:43:08.980Z,77.4013671875
2023-01-29T01:44:08.956Z,77.3759765625
2023-01-29T01:45:09.220Z,77.4404296875
2023-01-29T01:46:09.337Z,77.4951171875
2023-01-29T01:47:08.928Z,77.5888671875
2023-01-29T01:48:08.885Z,78.166015625
2023-01-29T01:49:11.270Z,77.875
2023-01-29T01:50:09.977Z,77.9697265625
2023-01-29T01:51:09.219Z,78.2119140625
2023-01-29T01:52:09.010Z,78.166015625
2023-01-29T01:53:08.896Z,78.2470703125
2023-01-29T01:54:08.831Z,78.4228515625
2023-01-29T01:55:08.997Z,78.52734375
2023-01-29T01:56:09.214Z,78.2724609375
2023-01-29T01:57:09.021Z,78.1630859375
2023-01-29T01:58:08.929Z,78.5185546875
2023-01-29T01:59:08.927Z,78.73828125
2023-01-29T02:00:13.742Z,78.82421875
2023-01-29T02:01:09.291Z,78.47265625
2023-01-29T02:02:08.912Z,78.34765625
2023-01-29T02:03:08.935Z,78.2822265625
2023-01-29T02:04:08.923Z,78.5068359375
2023-01-29T02:05:08.928Z,78.615234375
2023-01-29T02:06:09.229Z,78.9462890625
2023-01-29T02:07:08.900Z,79.1298828125
2023-01-29T02:08:08.869Z,78.9931640625
2023-01-29T02:09:08.996Z,78.85546875
2023-01-29T02:10:09.009Z,78.673828125
2023-01-29T02:11:12.252Z,78.673828125
2023-01-29T02:12:08.977Z,78.7412109375
2023-01-29T02:13:08.879Z,78.7158203125
2023-01-29T02:14:08.885Z,78.73046875
2023-01-29T02:15:09.219Z,78.671875
2023-01-29T02:16:09.211Z,78.8798828125
2023-01-29T02:17:08.938Z,78.666015625
2023-01-29T02:18:08.937Z,78.556640625
2023-01-29T02:19:08.991Z,78.98828125
2023-01-29T02:20:09.971Z,79.36328125
2023-01-29T02:21:09.215Z,79.380859375
2023-01-29T02:22:11.238Z,78.98046875
2023-01-29T02:23:08.897Z,78.666015625
2023-01-29T02:24:09.061Z,78.6005859375
2023-01-29T02:25:09.006Z,78.7021484375
2023-01-29T02:26:09.225Z,78.619140625
2023-01-29T02:27:08.844Z,78.625
2023-01-29T02:28:08.994Z,78.46875
2023-01-29T02:29:08.902Z,78.3623046875
2023-01-29T02:30:09.224Z,78.4609375
2023-01-29T02:31:09.469Z,78.21484375
2023-01-29T02:32:08.895Z,78.283203125
2023-01-29T02:33:11.331Z,78.060546875
2023-01-29T02:34:08.985Z,78.267578125
2023-01-29T02:35:08.994Z,78.4697265625
2023-01-29T02:36:09.209Z,78.6572265625
2023-01-29T02:37:08.962Z,78.31640625
2023-01-29T02:38:08.890Z,78.3662109375
2023-01-29T02:39:08.854Z,78.314453125
2023-01-29T02:40:08.892Z,78.04296875
2023-01-29T02:41:09.227Z,77.93359375
2023-01-29T02:42:09.000Z,77.8369140625
2023-01-29T02:43:08.974Z,77.8173828125
2023-01-29T02:44:11.332Z,77.7509765625
2023-01-29T02:45:09.216Z,77.72265625
2023-01-29T02:46:09.279Z,77.6416015625
2023-01-29T02:47:08.921Z,77.6103515625
2023-01-29T02:48:08.872Z,77.6396484375
2023-01-29T02:49:08.880Z,77.7578125
2023-01-29T02:50:09.967Z,77.794921875
2023-01-29T02:51:09.218Z,77.9638671875
2023-01-29T02:52:08.858Z,77.9892578125
2023-01-29T02:53:08.908Z,77.79296875
2023-01-29T02:54:08.939Z,77.6318359375
2023-01-29T02:55:11.199Z,77.68359375
2023-01-29T02:56:09.211Z,78.072265625
2023-01-29T02:57:08.887Z,78.0498046875
2023-01-29T02:58:08.953Z,78.1630859375
2023-01-29T02:59:08.988Z,78.44140625
2023-01-29T03:00:09.240Z,78.599609375
2023-01-29T03:01:09.262Z,78.6220703125
2023-01-29T03:02:09.035Z,78.51171875
2023-01-29T03:03:08.927Z,78.396484375
2023-01-29T03:04:08.996Z,78.2080078125
2023-01-29T03:05:08.832Z,78.2685546875
2023-01-29T03:06:13.689Z,78.552734375
2023-01-29T03:07:08.880Z,78.7626953125
2023-01-29T03:08:08.972Z,78.8388671875
2023-01-29T03:09:08.951Z,79.0322265625
2023-01-29T03:10:09.002Z,79.0546875
2023-01-29T03:11:09.213Z,79.404296875
2023-01-29T03:12:08.964Z,79.4453125
2023-01-29T03:13:08.981Z,79.5458984375
2023-01-29T03:14:08.999Z,79.501953125
2023-01-29T03:15:09.219Z,78.9814453125
2023-01-29T03:16:09.058Z,78.98828125
2023-01-29T03:17:13.720Z,79.123046875
2023-01-29T03:18:08.877Z,79.396484375
2023-01-29T03:19:09.762Z,79.6767578125
2023-01-29T03:20:09.720Z,79.763671875
2023-01-29T03:21:08.997Z,80.1064453125
2023-01-29T03:22:09.224Z,80.001953125
2023-01-29T03:23:08.981Z,80.0712890625
2023-01-29T03:24:09.062Z,80.0703125
2023-01-29T03:25:08.939Z,80.15234375
2023-01-29T03:26:08.982Z,80.4013671875
2023-01-29T03:27:09.260Z,80.6767578125
2023-01-29T03:28:11.305Z,80.8125
2023-01-29T03:29:08.973Z,80.744140625
2023-01-29T03:30:09.219Z,80.3076171875
2023-01-29T03:31:09.022Z,80.509765625
2023-01-29T03:32:09.286Z,79.7822265625
2023-01-29T03:33:09.011Z,79.7666015625
2023-01-29T03:34:08.861Z,80.0205078125
2023-01-29T03:35:08.951Z,79.666015625
2023-01-29T03:36:08.961Z,79.8115234375
2023-01-29T03:37:09.210Z,80.033203125
2023-01-29T03:38:09.959Z,79.892578125
2023-01-29T03:39:11.327Z,80.083984375
2023-01-29T03:40:08.975Z,79.9072265625
2023-01-29T03:41:08.935Z,79.75
2023-01-29T03:42:09.212Z,79.5634765625
2023-01-29T03:43:08.851Z,79.763671875
2023-01-29T03:44:08.936Z,79.986328125
2023-01-29T03:45:08.950Z,80.01953125
2023-01-29T03:46:09.003Z,80.017578125
2023-01-29T03:47:09.214Z,79.9736328125
2023-01-29T03:48:08.946Z,79.9404296875
2023-01-29T03:49:09.006Z,79.5595703125
2023-01-29T03:50:14.987Z,79.3408203125
2023-01-29T03:51:08.971Z,80.0048828125
2023-01-29T03:52:09.216Z,80.1650390625
2023-01-29T03:53:08.989Z,80.587890625
2023-01-29T03:54:08.997Z,80.51171875
2023-01-29T03:55:08.970Z,80.4951171875
2023-01-29T03:56:08.955Z,80.3154296875
2023-01-29T03:57:09.218Z,80.517578125
2023-01-29T03:58:08.985Z,80.212890625
2023-01-29T03:59:08.977Z,80.2880859375
2023-01-29T04:00:09.219Z,79.8427734375
2023-01-29T04:01:11.247Z,79.7998046875
2023-01-29T04:02:09.213Z,79.7470703125
2023-01-29T04:03:08.985Z,79.701171875
2023-01-29T04:04:08.877Z,79.7216796875
2023-01-29T04:05:08.926Z,79.6943359375
2023-01-29T04:06:08.987Z,79.8232421875
2023-01-29T04:07:09.009Z,79.7939453125
2023-01-29T04:08:08.853Z,79.6416015625
2023-01-29T04:09:08.978Z,79.3974609375
2023-01-29T04:10:08.876Z,79.552734375
2023-01-29T04:11:08.964Z,79.736328125
2023-01-29T04:12:13.681Z,79.8564453125
2023-01-29T04:13:08.887Z,79.9169921875
2023-01-29T04:14:08.868Z,80.1767578125
2023-01-29T04:15:09.215Z,80.2255859375
2023-01-29T04:16:09.057Z,80.2548828125
2023-01-29T04:17:09.210Z,80.37890625
2023-01-29T04:18:08.888Z,80.546875
2023-01-29T04:19:08.971Z,80.583984375
2023-01-29T04:20:09.795Z,81.0693359375
2023-01-29T04:21:08.931Z,81.4990234375
2023-01-29T04:22:09.221Z,81.5224609375
2023-01-29T04:23:11.315Z,81.5947265625
2023-01-29T04:24:09.015Z,81.76953125
2023-01-29T04:25:09.050Z,81.966796875
2023-01-29T04:26:08.930Z,81.9560546875
2023-01-29T04:27:09.313Z,82.04296875
2023-01-29T04:28:08.901Z,82.2041015625
2023-01-29T04:29:08.916Z,82.3505859375
2023-01-29T04:30:09.214Z,82.3701171875
2023-01-29T04:31:08.997Z,82.3037109375
2023-01-29T04:32:09.224Z,82.4208984375
2023-01-29T04:33:08.911Z,82.41796875
2023-01-29T04:34:11.233Z,82.28515625
2023-01-29T04:35:08.981Z,82.515625
2023-01-29T04:36:08.942Z,82.6826171875
2023-01-29T04:37:09.217Z,83.029296875
2023-01-29T04:38:08.998Z,82.947265625
2023-01-29T04:39:11.050Z,82.759765625
2023-01-29T04:40:08.871Z,82.5712890625
2023-01-29T04:41:08.937Z,82.5224609375
2023-01-29T04:42:09.216Z,82.712890625
2023-01-29T04:43:08.851Z,82.6767578125
2023-01-29T04:44:08.989Z,82.6474609375
2023-01-29T04:45:13.693Z,82.7236328125
2023-01-29T04:46:08.885Z,82.6337890625
2023-01-29T04:47:09.274Z,82.1318359375
2023-01-29T04:48:08.865Z,82.453125
2023-01-29T04:49:08.929Z,82.826171875
2023-01-29T04:50:09.094Z,82.708984375
2023-01-29T04:51:08.940Z,82.345703125
2023-01-29T04:52:09.213Z,81.994140625
2023-01-29T04:53:08.997Z,82.0234375
2023-01-29T04:54:08.988Z,81.9560546875
2023-01-29T04:55:08.960Z,81.896484375
2023-01-29T04:56:11.319Z,82.1923828125
2023-01-29T04:57:09.211Z,82.1484375
2023-01-29T04:58:08.896Z,82.0224609375
2023-01-29T04:59:08.995Z,82.34375
2023-01-29T05:00:09.212Z,82.21875
2023-01-29T05:01:08.883Z,82.228515625
2023-01-29T05:02:09.209Z,82.4609375
2023-01-29T05:03:09.023Z,82.46875
2023-01-29T05:04:09.005Z,82.8544921875
2023-01-29T05:05:08.920Z,83.3408203125
2023-01-29T05:06:08.903Z,83.349609375
2023-01-29T05:07:13.737Z,83.3603515625
2023-01-29T05:08:08.879Z,83.3154296875
2023-01-29T05:09:08.897Z,83.2353515625
2023-01-29T05:10:08.979Z,83.236328125
2023-01-29T05:11:08.964Z,83.501953125
2023-01-29T05:12:09.212Z,83.7470703125
2023-01-29T05:13:08.945Z,83.638671875
2023-01-29T05:14:08.997Z,83.7529296875
2023-01-29T05:15:09.223Z,83.859375
2023-01-29T05:16:08.900Z,83.9462890625
2023-01-29T05:17:09.212Z,84.0654296875
2023-01-29T05:18:11.408Z,84.0654296875
2023-01-29T05:19:09.014Z,84.177734375
2023-01-29T05:20:09.962Z,84.3466796875
2023-01-29T05:21:08.973Z,84.2841796875
2023-01-29T05:22:09.216Z,83.953125
2023-01-29T05:23:09.015Z,84.0166015625
2023-01-29T05:24:08.999Z,84.1826171875
2023-01-29T05:25:08.956Z,84.150390625
2023-01-29T05:26:09.000Z,84.0927734375
2023-01-29T05:27:09.272Z,84.05859375
2023-01-29T05:28:08.988Z,84.1884765625
2023-01-29T05:29:11.218Z,84.197265625
2023-01-29T05:30:09.220Z,84.404296875
2023-01-29T05:31:08.966Z,84.447265625
2023-01-29T05:32:09.219Z,84.3095703125
2023-01-29T05:33:08.959Z,84.4716796875
2023-01-29T05:34:08.948Z,84.75390625
2023-01-29T05:35:08.869Z,84.67578125
2023-01-29T05:36:08.936Z,84.72265625
2023-01-29T05:37:09.211Z,84.7822265625
2023-01-29T05:38:08.943Z,84.8046875
2023-01-29T05:39:08.965Z,84.853515625
2023-01-29T05:40:11.327Z,84.7412109375
2023-01-29T05:41:08.885Z,84.7880859375
2023-01-29T05:42:09.212Z,86.18359375
2023-01-29T05:43:08.911Z,86.6015625
2023-01-29T05:44:08.882Z,86.078125
2023-01-29T05:45:09.274Z,85.5283203125
2023-01-29T05:46:08.969Z,86.1474609375
2023-01-29T05:47:08.962Z,87.1435546875
2023-01-29T05:48:08.880Z,85.0185546875
2023-01-29T05:49:08.994Z,85.5791015625
2023-01-29T05:50:09.967Z,86.107421875
2023-01-29T05:51:11.318Z,86.4482421875
2023-01-29T05:52:09.218Z,86.763671875
2023-01-29T05:53:08.931Z,86.861328125
2023-01-29T05:54:08.907Z,85.6240234375
2023-01-29T05:55:08.884Z,85.3173828125
2023-01-29T05:56:08.951Z,85.2197265625
2023-01-29T05:57:09.214Z,86.359375
2023-01-29T05:58:08.932Z,85.666015625
2023-01-29T05:59:08.950Z,84.7421875
2023-01-29T06:00:09.219Z,84.5263671875
2023-01-29T06:01:08.930Z,84.615234375
2023-01-29T06:02:11.350Z,85.681640625
2023-01-29T06:03:09.035Z,86.1787109375
2023-01-29T06:04:08.892Z,87.4267578125
2023-01-29T06:05:08.943Z,85.8955078125
2023-01-29T06:06:08.895Z,85.685546875
2023-01-29T06:07:09.223Z,85.40234375
2023-01-29T06:08:08.880Z,84.599609375
2023-01-29T06:09:08.987Z,84.0517578125
2023-01-29T06:10:08.940Z,83.8173828125
2023-01-29T06:11:08.976Z,83.8828125
2023-01-29T06:12:09.221Z,84.3349609375
2023-01-29T06:13:11.333Z,84.3583984375
2023-01-29T06:14:08.959Z,84.2041015625
2023-01-29T06:15:09.213Z,84.5771484375
2023-01-29T06:16:08.933Z,83.9482421875
2023-01-29T06:17:09.213Z,84.4921875
2023-01-29T06:18:08.866Z,84.3583984375
2023-01-29T06:19:08.904Z,84.474609375
2023-01-29T06:20:09.796Z,84.447265625
2023-01-29T06:21:08.969Z,83.5888671875
2023-01-29T06:22:09.217Z,83.0361328125
2023-01-29T06:23:08.851Z,83.9033203125
2023-01-29T06:24:11.248Z,83.7802734375
2023-01-29T06:25:08.860Z,83.72265625
2023-01-29T06:26:08.975Z,83.951171875
2023-01-29T06:27:09.207Z,84.146484375
2023-01-29T06:28:08.914Z,83.80859375
2023-01-29T06:29:08.992Z,83.416015625
2023-01-29T06:30:09.005Z,84.1845703125
2023-01-29T06:31:28.386Z,84.7587890625
2023-01-29T06:32:09.317Z,84.87109375
2023-01-29T06:33:08.837Z,83.826171875
2023-01-29T06:34:08.856Z,82.857421875
2023-01-29T06:35:11.312Z,82.681640625
2023-01-29T06:36:08.951Z,83.5126953125
2023-01-29T06:37:09.217Z,83.1318359375
2023-01-29T06:38:08.944Z,83.4580078125
2023-01-29T06:39:08.857Z,83.4560546875
2023-01-29T06:40:08.957Z,82.90625
2023-01-29T06:41:08.985Z,82.693359375
2023-01-29T06:42:09.217Z,82.443359375
2023-01-29T06:43:08.853Z,81.9658203125
2023-01-29T06:44:09.006Z,81.861328125
2023-01-29T06:45:09.208Z,81.8857421875
2023-01-29T06:46:11.321Z,82.001953125
2023-01-29T06:47:09.302Z,82.029296875
2023-01-29T06:48:08.942Z,81.9990234375
2023-01-29T06:49:08.965Z,81.9765625
2023-01-29T06:50:09.962Z,82.109375
2023-01-29T06:51:08.924Z,82.0185546875
2023-01-29T06:52:09.211Z,81.9873046875
2023-01-29T06:53:08.895Z,82.0712890625
2023-01-29T06:54:08.977Z,82.2421875
2023-01-29T06:55:08.991Z,82.103515625
2023-01-29T06:56:08.964Z,82.00390625
2023-01-29T06:57:13.717Z,82.05859375
2023-01-29T06:58:08.924Z,82.166015625
2023-01-29T06:59:08.938Z,82.2314453125
2023-01-29T07:00:08.974Z,82.232421875
2023-01-29T07:01:08.916Z,82.185546875
2023-01-29T07:02:08.998Z,82.4814453125
2023-01-29T07:03:08.865Z,82.6650390625
2023-01-29T07:04:08.859Z,82.6201171875
2023-01-29T07:05:08.937Z,82.8076171875
2023-01-29T07:06:09.033Z,82.578125
2023-01-29T07:07:09.212Z,82.55859375
2023-01-29T07:08:11.302Z,82.630859375
2023-01-29T07:09:08.952Z,82.7041015625
2023-01-29T07:10:08.946Z,82.927734375
2023-01-29T07:11:08.989Z,82.5986328125
2023-01-29T07:12:09.000Z,82.5712890625
2023-01-29T07:13:08.929Z,82.9052734375
2023-01-29T07:14:08.985Z,82.8271484375
2023-01-29T07:15:09.224Z,82.375
2023-01-29T07:16:08.995Z,82.2255859375
2023-01-29T07:17:09.237Z,82.109375
2023-01-29T07:18:08.888Z,81.8828125
2023-01-29T07:19:11.261Z,81.80078125
2023-01-29T07:20:08.999Z,81.8818359375
2023-01-29T07:21:08.865Z,82.0068359375
2023-01-29T07:22:08.985Z,82.0224609375
2023-01-29T07:23:09.813Z,82.0146484375
2023-01-29T07:24:09.053Z,82.0966796875
2023-01-29T07:25:09.000Z,81.9404296875
2023-01-29T07:26:08.937Z,82.0361328125
2023-01-29T07:27:09.243Z,82.095703125
2023-01-29T07:28:08.893Z,82.5126953125
2023-01-29T07:29:08.967Z,82.3798828125
2023-01-29T07:30:13.903Z,82.1328125
2023-01-29T07:31:09.024Z,81.927734375
2023-01-29T07:32:09.251Z,81.4736328125
2023-01-29T07:33:08.942Z,81.216796875
2023-01-29T07:34:08.969Z,81.1787109375
2023-01-29T07:35:08.881Z,80.8359375
2023-01-29T07:36:09.001Z,80.86328125
2023-01-29T07:37:08.980Z,80.8486328125
2023-01-29T07:38:08.988Z,80.6552734375
2023-01-29T07:39:08.979Z,80.7041015625
2023-01-29T07:40:08.932Z,80.712890625
2023-01-29T07:41:11.294Z,80.576171875
2023-01-29T07:42:09.214Z,80.3876953125
2023-01-29T07:43:08.898Z,79.9638671875
2023-01-29T07:44:08.882Z,79.66796875
2023-01-29T07:45:09.219Z,79.6103515625
2023-01-29T07:46:09.140Z,79.4501953125
2023-01-29T07:47:09.230Z,79.2958984375
2023-01-29T07:48:08.896Z,79.2353515625
2023-01-29T07:49:08.954Z,79.1650390625
2023-01-29T07:50:09.963Z,79.0859375
2023-01-29T07:51:08.962Z,78.6982421875
2023-01-29T07:52:13.691Z,78.5654296875
2023-01-29T07:53:08.936Z,79.3203125
2023-01-29T07:54:08.939Z,79.0419921875
2023-01-29T07:55:08.945Z,78.6025390625
2023-01-29T07:56:08.930Z,78.6455078125
2023-01-29T07:57:09.183Z,78.5419921875
2023-01-29T07:58:08.890Z,78.8994140625
2023-01-29T07:59:08.962Z,78.794921875
2023-01-29T08:00:14.875Z,78.8603515625
2023-01-29T08:01:08.905Z,78.6728515625
2023-01-29T08:02:09.276Z,78.3955078125
2023-01-29T08:03:11.287Z,78.486328125
2023-01-29T08:04:08.988Z,79.40234375
2023-01-29T08:05:08.989Z,79.17578125
2023-01-29T08:06:08.890Z,78.8193359375
2023-01-29T08:07:09.215Z,79.486328125
2023-01-29T08:08:08.978Z,79.6181640625
2023-01-29T08:09:08.978Z,80.265625
2023-01-29T08:10:08.981Z,79.8876953125
2023-01-29T08:11:08.977Z,79.32421875
2023-01-29T08:12:09.725Z,78.82421875
2023-01-29T08:13:08.919Z,79.03515625
2023-01-29T08:14:11.286Z,79.3271484375
2023-01-29T08:15:09.221Z,78.8017578125
2023-01-29T08:16:08.950Z,79.0068359375
2023-01-29T08:17:09.220Z,78.3505859375
2023-01-29T08:18:08.850Z,77.9375
2023-01-29T08:19:08.942Z,78.3046875
2023-01-29T08:20:09.971Z,77.9453125
2023-01-29T08:21:08.948Z,77.564453125
2023-01-29T08:22:08.990Z,77.4052734375
2023-01-29T08:23:08.935Z,77.31640625
2023-01-29T08:24:08.870Z,76.7822265625
2023-01-29T08:25:11.279Z,77.0166015625
2023-01-29T08:26:09.006Z,76.744140625
2023-01-29T08:27:08.874Z,76.1494140625
2023-01-29T08:28:09.025Z,75.8525390625
2023-01-29T08:29:08.979Z,75.8876953125
2023-01-29T08:30:08.982Z,75.28515625
2023-01-29T08:31:09.007Z,74.927734375
2023-01-29T08:32:09.003Z,74.37890625
2023-01-29T08:33:09.812Z,74.169921875
2023-01-29T08:34:08.925Z,74.1220703125
2023-01-29T08:35:08.925Z,73.6630859375
2023-01-29T08:36:11.317Z,73.2587890625
2023-01-29T08:37:09.212Z,72.9169921875
2023-01-29T08:38:09.014Z,72.361328125
2023-01-29T08:39:08.889Z,71.689453125
2023-01-29T08:40:08.990Z,71.5
2023-01-29T08:41:09.005Z,71.0576171875
2023-01-29T08:42:08.959Z,71.041015625
2023-01-29T08:43:09.717Z,70.90625
2023-01-29T08:44:08.945Z,70.8505859375
2023-01-29T08:45:09.212Z,70.9736328125
2023-01-29T08:46:08.936Z,70.7802734375
2023-01-29T08:47:13.656Z,70.6767578125
2023-01-29T08:48:08.983Z,70.9248046875
2023-01-29T08:49:08.993Z,70.8798828125
2023-01-29T08:50:08.975Z,71.0634765625
2023-01-29T08:51:08.947Z,71.1181640625
2023-01-29T08:52:09.231Z,71.2783203125
2023-01-29T08:53:08.932Z,71.4931640625
2023-01-29T08:54:08.967Z,71.330078125
2023-01-29T08:55:08.882Z,71.53515625
2023-01-29T08:56:08.913Z,72.2421875
2023-01-29T08:57:09.210Z,72.3837890625
2023-01-29T08:58:11.266Z,73.4052734375
2023-01-29T08:59:08.945Z,73.28515625
2023-01-29T09:00:09.244Z,73.630859375
2023-01-29T09:01:08.979Z,73.916015625
2023-01-29T09:02:09.222Z,74.0205078125
2023-01-29T09:03:08.895Z,73.6015625
2023-01-29T09:04:08.900Z,73.5029296875
2023-01-29T09:05:08.901Z,73.712890625
2023-01-29T09:06:08.982Z,73.521484375
2023-01-29T09:07:09.220Z,73.9677734375
2023-01-29T09:08:08.922Z,73.775390625
2023-01-29T09:09:11.269Z,73.6259765625
2023-01-29T09:10:08.907Z,74.2509765625
2023-01-29T09:11:08.862Z,73.9033203125
2023-01-29T09:12:09.219Z,74.1259765625
2023-01-29T09:13:08.951Z,73.93359375
2023-01-29T09:14:08.884Z,73.59375
2023-01-29T09:15:09.221Z,74.5419921875
2023-01-29T09:16:09.000Z,73.9658203125
2023-01-29T09:17:09.212Z,73.783203125
2023-01-29T09:18:08.897Z,73.3330078125
2023-01-29T09:19:08.993Z,73.1650390625
2023-01-29T09:20:11.305Z,72.95703125
2023-01-29T09:21:08.871Z,73.021484375
2023-01-29T09:22:10.980Z,73.0703125
2023-01-29T09:23:08.944Z,73.1591796875
2023-01-29T09:24:08.984Z,73.107421875
2023-01-29T09:25:09.015Z,73.466796875
2023-01-29T09:26:08.945Z,73.6494140625
2023-01-29T09:27:09.221Z,74.0771484375
2023-01-29T09:28:08.948Z,74.302734375
2023-01-29T09:29:09.000Z,74.1318359375
2023-01-29T09:30:09.215Z,74.2099609375
2023-01-29T09:31:11.287Z,74.0927734375
2023-01-29T09:32:09.217Z,74.2197265625
2023-01-29T09:33:08.965Z,73.939453125
2023-01-29T09:34:08.851Z,73.84375
2023-01-29T09:35:08.972Z,73.892578125
2023-01-29T09:36:08.975Z,74.076171875
2023-01-29T09:37:09.212Z,74.0478515625
2023-01-29T09:38:08.871Z,74.2724609375
2023-01-29T09:39:08.892Z,74.6298828125
2023-01-29T09:40:08.895Z,74.673828125
2023-01-29T09:41:08.934Z,74.7158203125
2023-01-29T09:42:11.343Z,74.7861328125
2023-01-29T09:43:08.996Z,74.7490234375
2023-01-29T09:44:09.002Z,74.642578125
2023-01-29T09:45:09.217Z,74.5185546875
2023-01-29T09:46:09.043Z,74.181640625
2023-01-29T09:47:09.213Z,73.9453125
2023-01-29T09:48:08.930Z,73.978515625
2023-01-29T09:49:08.914Z,73.939453125
2023-01-29T09:50:09.800Z,73.7001953125
2023-01-29T09:51:08.967Z,73.7138671875
2023-01-29T09:52:09.222Z,73.6064453125
2023-01-29T09:53:12.234Z,73.6416015625
2023-01-29T09:54:08.985Z,73.6279296875
2023-01-29T09:55:08.902Z,73.8017578125
2023-01-29T09:56:08.907Z,73.65625
2023-01-29T09:57:09.213Z,73.294921875
2023-01-29T09:58:09.548Z,73.0224609375
2023-01-29T09:59:08.984Z,72.7138671875
2023-01-29T10:00:08.943Z,72.5263671875
2023-01-29T10:01:09.106Z,72.9033203125
2023-01-29T10:02:09.117Z,72.693359375
2023-01-29T10:03:08.992Z,72.3671875
2023-01-29T10:04:11.263Z,72.3828125
2023-01-29T10:05:08.951Z,72.2587890625
2023-01-29T10:06:08.876Z,71.9072265625
2023-01-29T10:07:09.789Z,71.662109375
2023-01-29T10:08:08.957Z,71.560546875
2023-01-29T10:09:08.850Z,71.3662109375
2023-01-29T10:10:08.902Z,71.1123046875
2023-01-29T10:11:08.968Z,70.693359375
2023-01-29T10:12:09.811Z,70.4384765625
2023-01-29T10:13:08.919Z,70.1455078125
2023-01-29T10:14:08.919Z,69.9169921875
2023-01-29T10:15:13.870Z,69.669921875
2023-01-29T10:16:08.928Z,69.3271484375
2023-01-29T10:17:09.108Z,68.982421875
2023-01-29T10:18:09.374Z,68.59375
2023-01-29T10:19:08.897Z,68.751953125
2023-01-29T10:20:09.846Z,69.2939453125
2023-01-29T10:21:08.987Z,69.486328125
2023-01-29T10:22:08.989Z,69.857421875
2023-01-29T10:23:08.879Z,70.2275390625
2023-01-29T10:24:08.946Z,70.4208984375
2023-01-29T10:25:08.967Z,70.8359375
2023-01-29T10:26:11.358Z,70.6552734375
2023-01-29T10:27:09.220Z,70.861328125
2023-01-29T10:28:08.984Z,70.89453125
2023-01-29T10:29:08.996Z,71.009765625